sensor_id;sensor_type;location;lat;lon;timestamp;P1;durP1;ratioP1;P2;durP2;ratioP2
21036;SDS011;10677;50.942;4.028;2023-07-29T00:01:35;5.03;;;1.40;;
21036;SDS011;10677;50.942;4.028;2023-07-29T00:04:01;5.95;;;1.27;;
21036;SDS011;10677;50.942;4.028;2023-07-29T00:06:27;3.30;;;0.90;;
21036;SDS011;10677;50.942;4.028;2023-07-29T00:08:53;3.78;;;1.38;;
21036;SDS011;10677;50.942;4.028;2023-07-29T00:11:18;3.25;;;1.50;;
21036;SDS011;10677;50.942;4.028;2023-07-29T00:13:44;3.70;;;1.13;;
21036;SDS011;10677;50.942;4.028;2023-07-29T00:16:10;2.25;;;1.10;;
21036;SDS011;10677;50.942;4.028;2023-07-29T00:18:35;3.00;;;1.35;;
21036;SDS011;10677;50.942;4.028;2023-07-29T00:21:01;3.55;;;1.50;;
21036;SDS011;10677;50.942;4.028;2023-07-29T00:23:27;3.15;;;1.40;;
21036;SDS011;10677;50.942;4.028;2023-07-29T00:25:52;3.45;;;1.52;;
21036;SDS011;10677;50.942;4.028;2023-07-29T00:28:18;5.68;;;1.92;;
21036;SDS011;10677;50.942;4.028;2023-07-29T00:30:44;4.70;;;1.30;;
21036;SDS011;10677;50.942;4.028;2023-07-29T00:33:09;4.28;;;1.42;;
21036;SDS011;10677;50.942;4.028;2023-07-29T00:35:35;3.35;;;1.65;;
21036;SDS011;10677;50.942;4.028;2023-07-29T00:38:01;4.32;;;1.70;;
21036;SDS011;10677;50.942;4.028;2023-07-29T00:40:27;3.58;;;1.65;;
21036;SDS011;10677;50.942;4.028;2023-07-29T00:42:54;3.05;;;1.48;;
21036;SDS011;10677;50.942;4.028;2023-07-29T00:45:19;3.60;;;1.90;;
21036;SDS011;10677;50.942;4.028;2023-07-29T00:47:45;5.07;;;1.50;;
21036;SDS011;10677;50.942;4.028;2023-07-29T00:50:12;4.88;;;1.75;;
21036;SDS011;10677;50.942;4.028;2023-07-29T00:52:39;5.20;;;1.73;;
21036;SDS011;10677;50.942;4.028;2023-07-29T00:55:05;3.60;;;1.73;;
21036;SDS011;10677;50.942;4.028;2023-07-29T00:57:32;3.55;;;1.70;;
21036;SDS011;10677;50.942;4.028;2023-07-29T00:59:59;7.93;;;1.90;;
21036;SDS011;10677;50.942;4.028;2023-07-29T01:02:25;2.97;;;1.88;;
21036;SDS011;10677;50.942;4.028;2023-07-29T01:04:55;3.33;;;1.50;;
21036;SDS011;10677;50.942;4.028;2023-07-29T01:13:11;6.40;;;1.70;;
21036;SDS011;10677;50.942;4.028;2023-07-29T01:18:23;4.88;;;1.60;;
21036;SDS011;10677;50.942;4.028;2023-07-29T01:20:53;5.32;;;1.85;;
21036;SDS011;10677;50.942;4.028;2023-07-29T01:23:32;5.40;;;2.08;;
21036;SDS011;10677;50.942;4.028;2023-07-29T01:26:01;3.50;;;1.85;;
21036;SDS011;10677;50.942;4.028;2023-07-29T01:28:27;4.78;;;1.85;;
21036;SDS011;10677;50.942;4.028;2023-07-29T01:30:57;6.05;;;1.73;;
21036;SDS011;10677;50.942;4.028;2023-07-29T01:33:26;6.65;;;1.88;;
21036;SDS011;10677;50.942;4.028;2023-07-29T01:35:57;3.35;;;1.63;;
21036;SDS011;10677;50.942;4.028;2023-07-29T01:38:36;4.82;;;1.67;;
21036;SDS011;10677;50.942;4.028;2023-07-29T01:41:06;3.22;;;1.77;;
21036;SDS011;10677;50.942;4.028;2023-07-29T01:43:33;3.70;;;2.00;;
21036;SDS011;10677;50.942;4.028;2023-07-29T01:46:04;3.97;;;2.08;;
21036;SDS011;10677;50.942;4.028;2023-07-29T01:48:30;5.43;;;1.98;;
21036;SDS011;10677;50.942;4.028;2023-07-29T01:50:57;5.63;;;1.70;;
21036;SDS011;10677;50.942;4.028;2023-07-29T01:53:22;4.13;;;1.90;;
21036;SDS011;10677;50.942;4.028;2023-07-29T01:55:48;6.28;;;2.22;;
21036;SDS011;10677;50.942;4.028;2023-07-29T01:58:14;3.72;;;2.05;;
21036;SDS011;10677;50.942;4.028;2023-07-29T02:00:40;4.35;;;2.10;;
21036;SDS011;10677;50.942;4.028;2023-07-29T02:03:06;4.82;;;1.90;;
21036;SDS011;10677;50.942;4.028;2023-07-29T02:05:31;5.30;;;2.42;;
21036;SDS011;10677;50.942;4.028;2023-07-29T02:07:57;4.88;;;2.25;;
21036;SDS011;10677;50.942;4.028;2023-07-29T02:10:23;2.42;;;1.60;;
21036;SDS011;10677;50.942;4.028;2023-07-29T02:12:48;4.63;;;1.92;;
21036;SDS011;10677;50.942;4.028;2023-07-29T02:15:14;5.43;;;2.25;;
21036;SDS011;10677;50.942;4.028;2023-07-29T02:17:41;5.35;;;2.13;;
21036;SDS011;10677;50.942;4.028;2023-07-29T02:20:07;5.40;;;2.35;;
21036;SDS011;10677;50.942;4.028;2023-07-29T02:22:33;4.47;;;2.08;;
21036;SDS011;10677;50.942;4.028;2023-07-29T02:24:59;4.10;;;2.35;;
21036;SDS011;10677;50.942;4.028;2023-07-29T02:27:26;5.07;;;2.15;;
21036;SDS011;10677;50.942;4.028;2023-07-29T02:29:52;4.55;;;2.10;;
21036;SDS011;10677;50.942;4.028;2023-07-29T02:32:18;5.57;;;1.83;;
21036;SDS011;10677;50.942;4.028;2023-07-29T02:34:44;4.97;;;2.15;;
21036;SDS011;10677;50.942;4.028;2023-07-29T02:37:10;6.88;;;2.40;;
21036;SDS011;10677;50.942;4.028;2023-07-29T02:39:36;3.13;;;2.03;;
21036;SDS011;10677;50.942;4.028;2023-07-29T02:42:02;4.22;;;2.05;;
21036;SDS011;10677;50.942;4.028;2023-07-29T02:44:28;3.90;;;1.70;;
21036;SDS011;10677;50.942;4.028;2023-07-29T02:46:53;2.67;;;1.30;;
21036;SDS011;10677;50.942;4.028;2023-07-29T02:49:21;4.15;;;1.90;;
21036;SDS011;10677;50.942;4.028;2023-07-29T02:51:47;4.95;;;2.00;;
21036;SDS011;10677;50.942;4.028;2023-07-29T02:54:12;6.88;;;1.95;;
21036;SDS011;10677;50.942;4.028;2023-07-29T02:56:38;4.90;;;1.73;;
21036;SDS011;10677;50.942;4.028;2023-07-29T02:59:04;3.97;;;1.80;;
21036;SDS011;10677;50.942;4.028;2023-07-29T03:01:30;3.75;;;1.60;;
21036;SDS011;10677;50.942;4.028;2023-07-29T03:03:56;4.43;;;1.65;;
21036;SDS011;10677;50.942;4.028;2023-07-29T03:06:21;3.28;;;1.90;;
21036;SDS011;10677;50.942;4.028;2023-07-29T03:08:47;4.65;;;1.77;;
21036;SDS011;10677;50.942;4.028;2023-07-29T03:11:13;4.53;;;1.40;;
21036;SDS011;10677;50.942;4.028;2023-07-29T03:13:40;4.22;;;1.65;;
21036;SDS011;10677;50.942;4.028;2023-07-29T03:16:10;3.30;;;2.00;;
21036;SDS011;10677;50.942;4.028;2023-07-29T03:18:36;3.00;;;1.48;;
21036;SDS011;10677;50.942;4.028;2023-07-29T03:21:02;3.33;;;1.77;;
21036;SDS011;10677;50.942;4.028;2023-07-29T03:23:28;4.53;;;1.80;;
21036;SDS011;10677;50.942;4.028;2023-07-29T03:25:55;4.13;;;2.00;;
21036;SDS011;10677;50.942;4.028;2023-07-29T03:28:29;4.53;;;1.55;;
21036;SDS011;10677;50.942;4.028;2023-07-29T03:30:58;4.63;;;1.77;;
21036;SDS011;10677;50.942;4.028;2023-07-29T03:33:24;3.72;;;1.30;;
21036;SDS011;10677;50.942;4.028;2023-07-29T03:35:51;4.53;;;1.60;;
21036;SDS011;10677;50.942;4.028;2023-07-29T03:38:17;4.75;;;1.90;;
21036;SDS011;10677;50.942;4.028;2023-07-29T03:40:43;5.22;;;2.08;;
21036;SDS011;10677;50.942;4.028;2023-07-29T03:43:09;2.75;;;1.42;;
21036;SDS011;10677;50.942;4.028;2023-07-29T03:45:35;2.10;;;1.25;;
21036;SDS011;10677;50.942;4.028;2023-07-29T03:48:02;5.22;;;1.55;;
21036;SDS011;10677;50.942;4.028;2023-07-29T03:50:29;4.47;;;1.77;;
21036;SDS011;10677;50.942;4.028;2023-07-29T03:52:55;3.03;;;1.40;;
21036;SDS011;10677;50.942;4.028;2023-07-29T03:55:21;3.78;;;1.42;;
21036;SDS011;10677;50.942;4.028;2023-07-29T03:57:47;2.85;;;1.27;;
21036;SDS011;10677;50.942;4.028;2023-07-29T04:00:13;3.65;;;1.77;;
21036;SDS011;10677;50.942;4.028;2023-07-29T04:02:39;7.40;;;1.73;;
21036;SDS011;10677;50.942;4.028;2023-07-29T04:05:05;3.80;;;1.52;;
21036;SDS011;10677;50.942;4.028;2023-07-29T04:07:33;3.70;;;2.00;;
21036;SDS011;10677;50.942;4.028;2023-07-29T04:09:59;3.35;;;1.63;;
21036;SDS011;10677;50.942;4.028;2023-07-29T04:12:26;3.65;;;1.98;;
21036;SDS011;10677;50.942;4.028;2023-07-29T04:14:52;4.57;;;1.75;;
21036;SDS011;10677;50.942;4.028;2023-07-29T04:17:17;6.18;;;1.88;;
21036;SDS011;10677;50.942;4.028;2023-07-29T04:19:43;4.00;;;1.95;;
21036;SDS011;10677;50.942;4.028;2023-07-29T04:22:09;6.95;;;2.05;;
21036;SDS011;10677;50.942;4.028;2023-07-29T04:24:34;4.47;;;1.65;;
21036;SDS011;10677;50.942;4.028;2023-07-29T04:27:00;4.57;;;1.50;;
21036;SDS011;10677;50.942;4.028;2023-07-29T04:29:26;4.93;;;1.55;;
21036;SDS011;10677;50.942;4.028;2023-07-29T04:31:52;4.35;;;1.48;;
21036;SDS011;10677;50.942;4.028;2023-07-29T04:34:18;5.35;;;1.88;;
21036;SDS011;10677;50.942;4.028;2023-07-29T04:36:44;4.70;;;1.70;;
21036;SDS011;10677;50.942;4.028;2023-07-29T04:39:10;3.30;;;1.67;;
21036;SDS011;10677;50.942;4.028;2023-07-29T04:41:36;5.05;;;2.10;;
21036;SDS011;10677;50.942;4.028;2023-07-29T04:44:02;6.75;;;2.47;;
21036;SDS011;10677;50.942;4.028;2023-07-29T04:46:27;4.03;;;1.67;;
21036;SDS011;10677;50.942;4.028;2023-07-29T04:48:53;3.75;;;1.70;;
21036;SDS011;10677;50.942;4.028;2023-07-29T04:51:19;5.88;;;2.58;;
21036;SDS011;10677;50.942;4.028;2023-07-29T04:53:44;6.05;;;2.00;;
21036;SDS011;10677;50.942;4.028;2023-07-29T04:56:10;3.60;;;1.70;;
21036;SDS011;10677;50.942;4.028;2023-07-29T04:58:36;6.45;;;2.20;;
21036;SDS011;10677;50.942;4.028;2023-07-29T05:01:02;7.03;;;2.03;;
21036;SDS011;10677;50.942;4.028;2023-07-29T05:03:28;4.60;;;1.90;;
21036;SDS011;10677;50.942;4.028;2023-07-29T05:05:54;5.45;;;2.35;;
21036;SDS011;10677;50.942;4.028;2023-07-29T05:08:22;5.53;;;2.20;;
21036;SDS011;10677;50.942;4.028;2023-07-29T05:10:51;5.47;;;2.67;;
21036;SDS011;10677;50.942;4.028;2023-07-29T05:13:17;5.30;;;2.20;;
21036;SDS011;10677;50.942;4.028;2023-07-29T05:15:43;3.90;;;2.13;;
21036;SDS011;10677;50.942;4.028;2023-07-29T05:18:09;6.13;;;2.88;;
21036;SDS011;10677;50.942;4.028;2023-07-29T05:20:35;5.60;;;2.55;;
21036;SDS011;10677;50.942;4.028;2023-07-29T05:23:01;5.30;;;2.40;;
21036;SDS011;10677;50.942;4.028;2023-07-29T05:25:27;8.88;;;3.20;;
21036;SDS011;10677;50.942;4.028;2023-07-29T05:27:52;6.95;;;3.00;;
21036;SDS011;10677;50.942;4.028;2023-07-29T05:30:18;4.85;;;2.45;;
21036;SDS011;10677;50.942;4.028;2023-07-29T05:32:43;5.03;;;2.58;;
21036;SDS011;10677;50.942;4.028;2023-07-29T05:35:09;6.10;;;2.20;;
21036;SDS011;10677;50.942;4.028;2023-07-29T05:37:38;5.78;;;2.60;;
21036;SDS011;10677;50.942;4.028;2023-07-29T05:40:07;4.63;;;1.90;;
21036;SDS011;10677;50.942;4.028;2023-07-29T05:42:34;4.47;;;2.00;;
21036;SDS011;10677;50.942;4.028;2023-07-29T05:44:59;6.55;;;2.35;;
21036;SDS011;10677;50.942;4.028;2023-07-29T05:47:25;4.80;;;2.38;;
21036;SDS011;10677;50.942;4.028;2023-07-29T05:49:52;4.75;;;2.60;;
21036;SDS011;10677;50.942;4.028;2023-07-29T05:52:17;5.28;;;2.17;;
21036;SDS011;10677;50.942;4.028;2023-07-29T05:54:43;4.85;;;1.88;;
21036;SDS011;10677;50.942;4.028;2023-07-29T05:57:09;3.35;;;2.15;;
21036;SDS011;10677;50.942;4.028;2023-07-29T05:59:36;8.15;;;2.45;;
21036;SDS011;10677;50.942;4.028;2023-07-29T06:02:02;3.80;;;2.40;;
21036;SDS011;10677;50.942;4.028;2023-07-29T06:04:28;4.35;;;2.30;;
21036;SDS011;10677;50.942;4.028;2023-07-29T06:06:53;5.22;;;2.08;;
21036;SDS011;10677;50.942;4.028;2023-07-29T06:09:20;3.75;;;2.15;;
21036;SDS011;10677;50.942;4.028;2023-07-29T06:11:46;5.28;;;2.22;;
21036;SDS011;10677;50.942;4.028;2023-07-29T06:14:12;2.83;;;1.48;;
21036;SDS011;10677;50.942;4.028;2023-07-29T06:16:38;5.30;;;2.00;;
21036;SDS011;10677;50.942;4.028;2023-07-29T06:19:04;6.03;;;1.98;;
21036;SDS011;10677;50.942;4.028;2023-07-29T06:21:29;3.20;;;1.67;;
21036;SDS011;10677;50.942;4.028;2023-07-29T06:23:55;5.78;;;1.67;;
21036;SDS011;10677;50.942;4.028;2023-07-29T06:26:21;4.43;;;1.70;;
21036;SDS011;10677;50.942;4.028;2023-07-29T06:28:47;2.42;;;1.38;;
21036;SDS011;10677;50.942;4.028;2023-07-29T06:31:12;4.50;;;1.85;;
21036;SDS011;10677;50.942;4.028;2023-07-29T06:33:38;3.65;;;1.50;;
21036;SDS011;10677;50.942;4.028;2023-07-29T06:36:04;3.75;;;1.83;;
21036;SDS011;10677;50.942;4.028;2023-07-29T06:38:29;6.00;;;1.58;;
21036;SDS011;10677;50.942;4.028;2023-07-29T06:40:55;4.55;;;1.23;;
21036;SDS011;10677;50.942;4.028;2023-07-29T06:43:21;3.50;;;1.27;;
21036;SDS011;10677;50.942;4.028;2023-07-29T06:45:47;7.15;;;1.60;;
21036;SDS011;10677;50.942;4.028;2023-07-29T06:48:12;3.13;;;1.38;;
21036;SDS011;10677;50.942;4.028;2023-07-29T06:50:38;3.05;;;1.48;;
21036;SDS011;10677;50.942;4.028;2023-07-29T06:53:04;7.28;;;1.50;;
21036;SDS011;10677;50.942;4.028;2023-07-29T06:55:29;3.88;;;1.33;;
21036;SDS011;10677;50.942;4.028;2023-07-29T06:57:55;3.13;;;1.55;;
21036;SDS011;10677;50.942;4.028;2023-07-29T07:00:21;2.47;;;1.20;;
21036;SDS011;10677;50.942;4.028;2023-07-29T07:02:46;4.60;;;1.42;;
21036;SDS011;10677;50.942;4.028;2023-07-29T07:05:12;3.33;;;1.40;;
21036;SDS011;10677;50.942;4.028;2023-07-29T07:07:38;3.40;;;1.58;;
21036;SDS011;10677;50.942;4.028;2023-07-29T07:10:03;3.83;;;1.35;;
21036;SDS011;10677;50.942;4.028;2023-07-29T07:12:29;4.40;;;1.50;;
21036;SDS011;10677;50.942;4.028;2023-07-29T07:14:55;3.78;;;1.60;;
21036;SDS011;10677;50.942;4.028;2023-07-29T07:17:21;3.03;;;1.30;;
21036;SDS011;10677;50.942;4.028;2023-07-29T07:19:46;3.97;;;1.45;;
21036;SDS011;10677;50.942;4.028;2023-07-29T07:22:12;2.78;;;1.45;;
21036;SDS011;10677;50.942;4.028;2023-07-29T07:24:37;3.47;;;1.40;;
21036;SDS011;10677;50.942;4.028;2023-07-29T07:27:03;5.70;;;1.40;;
21036;SDS011;10677;50.942;4.028;2023-07-29T07:29:29;4.75;;;1.90;;
21036;SDS011;10677;50.942;4.028;2023-07-29T07:31:56;3.28;;;1.45;;
21036;SDS011;10677;50.942;4.028;2023-07-29T07:34:22;3.25;;;1.33;;
21036;SDS011;10677;50.942;4.028;2023-07-29T07:36:47;3.72;;;1.30;;
21036;SDS011;10677;50.942;4.028;2023-07-29T07:39:13;5.25;;;1.70;;
21036;SDS011;10677;50.942;4.028;2023-07-29T07:41:39;6.18;;;1.60;;
21036;SDS011;10677;50.942;4.028;2023-07-29T07:44:05;5.43;;;1.77;;
21036;SDS011;10677;50.942;4.028;2023-07-29T07:46:31;5.60;;;1.55;;
21036;SDS011;10677;50.942;4.028;2023-07-29T07:48:57;4.05;;;1.65;;
21036;SDS011;10677;50.942;4.028;2023-07-29T07:51:22;6.18;;;1.70;;
21036;SDS011;10677;50.942;4.028;2023-07-29T07:53:48;2.88;;;1.58;;
21036;SDS011;10677;50.942;4.028;2023-07-29T07:56:14;5.10;;;1.30;;
21036;SDS011;10677;50.942;4.028;2023-07-29T07:58:40;3.05;;;1.25;;
21036;SDS011;10677;50.942;4.028;2023-07-29T08:01:06;2.42;;;1.17;;
21036;SDS011;10677;50.942;4.028;2023-07-29T08:03:33;5.68;;;1.50;;
21036;SDS011;10677;50.942;4.028;2023-07-29T08:05:59;4.50;;;1.40;;
21036;SDS011;10677;50.942;4.028;2023-07-29T08:08:25;4.43;;;1.15;;
21036;SDS011;10677;50.942;4.028;2023-07-29T08:10:52;4.53;;;1.33;;
21036;SDS011;10677;50.942;4.028;2023-07-29T08:13:19;2.75;;;1.40;;
21036;SDS011;10677;50.942;4.028;2023-07-29T08:15:50;2.28;;;0.98;;
21036;SDS011;10677;50.942;4.028;2023-07-29T08:18:17;2.50;;;0.98;;
21036;SDS011;10677;50.942;4.028;2023-07-29T08:20:56;2.22;;;0.95;;
21036;SDS011;10677;50.942;4.028;2023-07-29T08:23:24;1.77;;;0.90;;
21036;SDS011;10677;50.942;4.028;2023-07-29T08:25:51;2.53;;;0.90;;
21036;SDS011;10677;50.942;4.028;2023-07-29T08:28:18;4.80;;;1.50;;
21036;SDS011;10677;50.942;4.028;2023-07-29T08:30:44;2.40;;;1.08;;
21036;SDS011;10677;50.942;4.028;2023-07-29T08:33:10;2.67;;;1.40;;
21036;SDS011;10677;50.942;4.028;2023-07-29T08:35:35;3.90;;;1.27;;
21036;SDS011;10677;50.942;4.028;2023-07-29T08:38:02;2.53;;;1.08;;
21036;SDS011;10677;50.942;4.028;2023-07-29T08:40:29;2.30;;;1.08;;
21036;SDS011;10677;50.942;4.028;2023-07-29T08:42:56;2.35;;;1.00;;
21036;SDS011;10677;50.942;4.028;2023-07-29T08:45:26;2.35;;;1.15;;
21036;SDS011;10677;50.942;4.028;2023-07-29T08:47:52;3.33;;;1.20;;
21036;SDS011;10677;50.942;4.028;2023-07-29T08:50:23;2.78;;;1.00;;
21036;SDS011;10677;50.942;4.028;2023-07-29T08:52:49;2.45;;;1.10;;
21036;SDS011;10677;50.942;4.028;2023-07-29T08:55:17;2.05;;;1.20;;
21036;SDS011;10677;50.942;4.028;2023-07-29T08:57:43;3.80;;;1.25;;
21036;SDS011;10677;50.942;4.028;2023-07-29T09:00:09;2.00;;;1.10;;
21036;SDS011;10677;50.942;4.028;2023-07-29T09:02:36;2.17;;;1.00;;
21036;SDS011;10677;50.942;4.028;2023-07-29T09:05:02;3.97;;;1.13;;
21036;SDS011;10677;50.942;4.028;2023-07-29T09:07:28;3.83;;;1.25;;
21036;SDS011;10677;50.942;4.028;2023-07-29T09:09:56;3.97;;;1.70;;
21036;SDS011;10677;50.942;4.028;2023-07-29T09:12:21;3.17;;;1.30;;
21036;SDS011;10677;50.942;4.028;2023-07-29T09:14:51;3.20;;;1.40;;
21036;SDS011;10677;50.942;4.028;2023-07-29T09:17:17;3.35;;;1.45;;
21036;SDS011;10677;50.942;4.028;2023-07-29T09:19:47;5.65;;;1.60;;
21036;SDS011;10677;50.942;4.028;2023-07-29T09:22:17;2.88;;;1.42;;
21036;SDS011;10677;50.942;4.028;2023-07-29T09:24:44;2.35;;;1.00;;
21036;SDS011;10677;50.942;4.028;2023-07-29T09:27:23;4.00;;;1.60;;
21036;SDS011;10677;50.942;4.028;2023-07-29T09:29:49;4.05;;;1.33;;
21036;SDS011;10677;50.942;4.028;2023-07-29T09:32:21;3.85;;;1.33;;
21036;SDS011;10677;50.942;4.028;2023-07-29T09:34:48;5.63;;;1.38;;
21036;SDS011;10677;50.942;4.028;2023-07-29T09:37:16;2.55;;;1.23;;
21036;SDS011;10677;50.942;4.028;2023-07-29T09:39:50;2.55;;;1.40;;
21036;SDS011;10677;50.942;4.028;2023-07-29T09:42:20;1.77;;;1.08;;
21036;SDS011;10677;50.942;4.028;2023-07-29T09:49:46;2.95;;;1.30;;
21036;SDS011;10677;50.942;4.028;2023-07-29T09:52:14;2.92;;;1.48;;
21036;SDS011;10677;50.942;4.028;2023-07-29T09:54:41;2.45;;;1.13;;
21036;SDS011;10677;50.942;4.028;2023-07-29T09:57:08;4.43;;;1.50;;
21036;SDS011;10677;50.942;4.028;2023-07-29T09:59:35;2.20;;;1.00;;
21036;SDS011;10677;50.942;4.028;2023-07-29T10:02:00;3.50;;;1.13;;
21036;SDS011;10677;50.942;4.028;2023-07-29T10:04:26;3.67;;;1.40;;
21036;SDS011;10677;50.942;4.028;2023-07-29T10:06:53;4.82;;;1.40;;
21036;SDS011;10677;50.942;4.028;2023-07-29T10:09:20;2.78;;;1.30;;
21036;SDS011;10677;50.942;4.028;2023-07-29T10:11:46;3.05;;;1.70;;
21036;SDS011;10677;50.942;4.028;2023-07-29T10:14:14;6.18;;;1.40;;
21036;SDS011;10677;50.942;4.028;2023-07-29T10:16:40;3.78;;;1.40;;
21036;SDS011;10677;50.942;4.028;2023-07-29T10:19:07;3.80;;;1.75;;
21036;SDS011;10677;50.942;4.028;2023-07-29T10:21:35;4.13;;;1.92;;
21036;SDS011;10677;50.942;4.028;2023-07-29T10:24:03;2.75;;;1.70;;
21036;SDS011;10677;50.942;4.028;2023-07-29T10:26:34;3.67;;;1.70;;
21036;SDS011;10677;50.942;4.028;2023-07-29T10:29:02;2.40;;;1.67;;
21036;SDS011;10677;50.942;4.028;2023-07-29T10:31:33;3.97;;;1.70;;
21036;SDS011;10677;50.942;4.028;2023-07-29T10:34:00;3.42;;;1.40;;
21036;SDS011;10677;50.942;4.028;2023-07-29T10:36:27;3.00;;;1.45;;
21036;SDS011;10677;50.942;4.028;2023-07-29T10:38:53;3.05;;;1.85;;
21036;SDS011;10677;50.942;4.028;2023-07-29T10:41:19;2.45;;;1.50;;
21036;SDS011;10677;50.942;4.028;2023-07-29T10:43:45;4.95;;;1.63;;
21036;SDS011;10677;50.942;4.028;2023-07-29T10:46:17;2.78;;;1.40;;
21036;SDS011;10677;50.942;4.028;2023-07-29T10:51:26;2.45;;;1.02;;
21036;SDS011;10677;50.942;4.028;2023-07-29T10:54:11;3.58;;;0.98;;
21036;SDS011;10677;50.942;4.028;2023-07-29T10:56:42;1.90;;;0.70;;
21036;SDS011;10677;50.942;4.028;2023-07-29T11:01:41;1.85;;;0.90;;
21036;SDS011;10677;50.942;4.028;2023-07-29T11:09:41;3.63;;;0.90;;
21036;SDS011;10677;50.942;4.028;2023-07-29T11:17:36;3.47;;;0.90;;
21036;SDS011;10677;50.942;4.028;2023-07-29T11:20:06;1.95;;;1.05;;
21036;SDS011;10677;50.942;4.028;2023-07-29T11:22:33;2.13;;;0.90;;
21036;SDS011;10677;50.942;4.028;2023-07-29T11:24:59;1.95;;;1.00;;
21036;SDS011;10677;50.942;4.028;2023-07-29T11:27:25;1.40;;;0.70;;
21036;SDS011;10677;50.942;4.028;2023-07-29T11:29:55;2.00;;;0.95;;
21036;SDS011;10677;50.942;4.028;2023-07-29T11:32:25;2.05;;;1.08;;
21036;SDS011;10677;50.942;4.028;2023-07-29T11:34:51;2.08;;;0.82;;
21036;SDS011;10677;50.942;4.028;2023-07-29T11:37:16;1.73;;;0.70;;
21036;SDS011;10677;50.942;4.028;2023-07-29T11:39:43;3.15;;;1.13;;
21036;SDS011;10677;50.942;4.028;2023-07-29T11:42:16;1.92;;;1.20;;
21036;SDS011;10677;50.942;4.028;2023-07-29T11:44:42;1.92;;;0.98;;
21036;SDS011;10677;50.942;4.028;2023-07-29T11:47:10;1.05;;;0.60;;
21036;SDS011;10677;50.942;4.028;2023-07-29T11:49:38;1.63;;;0.75;;
21036;SDS011;10677;50.942;4.028;2023-07-29T11:52:08;3.58;;;0.80;;
21036;SDS011;10677;50.942;4.028;2023-07-29T11:54:38;3.28;;;1.27;;
21036;SDS011;10677;50.942;4.028;2023-07-29T11:57:13;1.23;;;0.80;;
21036;SDS011;10677;50.942;4.028;2023-07-29T11:59:40;1.42;;;0.77;;
21036;SDS011;10677;50.942;4.028;2023-07-29T12:02:12;1.30;;;0.70;;
21036;SDS011;10677;50.942;4.028;2023-07-29T12:04:39;2.17;;;0.82;;
21036;SDS011;10677;50.942;4.028;2023-07-29T12:07:06;2.80;;;1.10;;
21036;SDS011;10677;50.942;4.028;2023-07-29T12:09:33;2.17;;;1.02;;
21036;SDS011;10677;50.942;4.028;2023-07-29T12:12:03;3.38;;;1.20;;
21036;SDS011;10677;50.942;4.028;2023-07-29T12:14:29;1.90;;;0.90;;
21036;SDS011;10677;50.942;4.028;2023-07-29T12:16:55;2.28;;;0.95;;
21036;SDS011;10677;50.942;4.028;2023-07-29T12:19:24;2.40;;;1.15;;
21036;SDS011;10677;50.942;4.028;2023-07-29T12:21:56;1.05;;;0.60;;
21036;SDS011;10677;50.942;4.028;2023-07-29T12:24:22;4.32;;;1.00;;
21036;SDS011;10677;50.942;4.028;2023-07-29T12:26:48;2.35;;;0.90;;
21036;SDS011;10677;50.942;4.028;2023-07-29T12:29:14;3.58;;;0.93;;
21036;SDS011;10677;50.942;4.028;2023-07-29T12:31:40;1.73;;;0.88;;
21036;SDS011;10677;50.942;4.028;2023-07-29T12:34:07;1.85;;;1.05;;
21036;SDS011;10677;50.942;4.028;2023-07-29T12:40:09;1.48;;;0.73;;
21036;SDS011;10677;50.942;4.028;2023-07-29T12:42:07;1.55;;;0.90;;
21036;SDS011;10677;50.942;4.028;2023-07-29T12:44:34;2.97;;;0.80;;
21036;SDS011;10677;50.942;4.028;2023-07-29T12:47:01;1.65;;;0.80;;
21036;SDS011;10677;50.942;4.028;2023-07-29T12:49:28;2.72;;;1.10;;
21036;SDS011;10677;50.942;4.028;2023-07-29T12:51:54;2.03;;;0.70;;
21036;SDS011;10677;50.942;4.028;2023-07-29T12:54:21;2.67;;;1.33;;
21036;SDS011;10677;50.942;4.028;2023-07-29T12:56:46;1.85;;;1.05;;
21036;SDS011;10677;50.942;4.028;2023-07-29T12:59:12;6.22;;;0.98;;
21036;SDS011;10677;50.942;4.028;2023-07-29T13:01:38;1.75;;;0.70;;
21036;SDS011;10677;50.942;4.028;2023-07-29T13:04:04;1.10;;;0.60;;
21036;SDS011;10677;50.942;4.028;2023-07-29T13:06:29;1.98;;;0.90;;
21036;SDS011;10677;50.942;4.028;2023-07-29T13:08:56;1.73;;;0.80;;
21036;SDS011;10677;50.942;4.028;2023-07-29T13:11:21;1.00;;;0.60;;
21036;SDS011;10677;50.942;4.028;2023-07-29T13:13:47;1.08;;;0.52;;
21036;SDS011;10677;50.942;4.028;2023-07-29T13:16:12;1.35;;;0.82;;
21036;SDS011;10677;50.942;4.028;2023-07-29T13:18:39;1.60;;;0.80;;
21036;SDS011;10677;50.942;4.028;2023-07-29T13:21:05;1.35;;;0.70;;
21036;SDS011;10677;50.942;4.028;2023-07-29T13:23:31;1.45;;;0.70;;
21036;SDS011;10677;50.942;4.028;2023-07-29T13:25:57;1.90;;;0.80;;
21036;SDS011;10677;50.942;4.028;2023-07-29T13:28:23;1.60;;;0.80;;
21036;SDS011;10677;50.942;4.028;2023-07-29T13:30:49;1.77;;;0.98;;
21036;SDS011;10677;50.942;4.028;2023-07-29T13:33:15;1.35;;;0.75;;
21036;SDS011;10677;50.942;4.028;2023-07-29T13:35:40;1.48;;;0.88;;
21036;SDS011;10677;50.942;4.028;2023-07-29T13:38:06;1.95;;;1.00;;
21036;SDS011;10677;50.942;4.028;2023-07-29T13:40:32;1.42;;;0.90;;
21036;SDS011;10677;50.942;4.028;2023-07-29T13:42:57;2.17;;;0.95;;
21036;SDS011;10677;50.942;4.028;2023-07-29T13:45:23;1.77;;;1.10;;
21036;SDS011;10677;50.942;4.028;2023-07-29T13:47:49;1.40;;;1.00;;
21036;SDS011;10677;50.942;4.028;2023-07-29T13:50:15;2.08;;;1.08;;
21036;SDS011;10677;50.942;4.028;2023-07-29T13:52:41;1.42;;;1.00;;
21036;SDS011;10677;50.942;4.028;2023-07-29T13:55:07;1.52;;;0.90;;
21036;SDS011;10677;50.942;4.028;2023-07-29T13:57:33;1.92;;;1.00;;
21036;SDS011;10677;50.942;4.028;2023-07-29T13:59:59;1.80;;;0.98;;
21036;SDS011;10677;50.942;4.028;2023-07-29T14:02:24;2.05;;;1.00;;
21036;SDS011;10677;50.942;4.028;2023-07-29T14:04:56;1.73;;;1.08;;
21036;SDS011;10677;50.942;4.028;2023-07-29T14:07:21;1.98;;;1.02;;
21036;SDS011;10677;50.942;4.028;2023-07-29T14:09:48;2.30;;;1.20;;
21036;SDS011;10677;50.942;4.028;2023-07-29T14:12:14;2.75;;;1.38;;
21036;SDS011;10677;50.942;4.028;2023-07-29T14:14:41;7.07;;;1.33;;
21036;SDS011;10677;50.942;4.028;2023-07-29T14:17:07;3.42;;;1.30;;
21036;SDS011;10677;50.942;4.028;2023-07-29T14:19:36;1.98;;;1.35;;
21036;SDS011;10677;50.942;4.028;2023-07-29T14:22:02;2.30;;;1.30;;
21036;SDS011;10677;50.942;4.028;2023-07-29T14:24:28;2.85;;;1.20;;
21036;SDS011;10677;50.942;4.028;2023-07-29T14:26:54;1.48;;;1.17;;
21036;SDS011;10677;50.942;4.028;2023-07-29T14:29:20;3.33;;;1.13;;
21036;SDS011;10677;50.942;4.028;2023-07-29T14:31:45;2.22;;;1.20;;
21036;SDS011;10677;50.942;4.028;2023-07-29T14:34:11;3.58;;;1.30;;
21036;SDS011;10677;50.942;4.028;2023-07-29T14:36:36;2.42;;;1.10;;
21036;SDS011;10677;50.942;4.028;2023-07-29T14:39:02;2.83;;;1.20;;
21036;SDS011;10677;50.942;4.028;2023-07-29T14:41:28;2.17;;;1.02;;
21036;SDS011;10677;50.942;4.028;2023-07-29T14:43:55;4.57;;;1.15;;
21036;SDS011;10677;50.942;4.028;2023-07-29T14:46:21;4.00;;;1.40;;
21036;SDS011;10677;50.942;4.028;2023-07-29T14:48:46;3.15;;;1.17;;
21036;SDS011;10677;50.942;4.028;2023-07-29T14:51:12;1.60;;;1.00;;
21036;SDS011;10677;50.942;4.028;2023-07-29T14:53:38;2.30;;;1.00;;
21036;SDS011;10677;50.942;4.028;2023-07-29T14:56:04;1.77;;;1.10;;
21036;SDS011;10677;50.942;4.028;2023-07-29T14:58:29;3.15;;;1.35;;
21036;SDS011;10677;50.942;4.028;2023-07-29T15:00:55;3.17;;;0.95;;
21036;SDS011;10677;50.942;4.028;2023-07-29T15:03:21;2.78;;;1.00;;
21036;SDS011;10677;50.942;4.028;2023-07-29T15:05:47;1.25;;;0.77;;
21036;SDS011;10677;50.942;4.028;2023-07-29T15:08:14;1.17;;;0.80;;
21036;SDS011;10677;50.942;4.028;2023-07-29T15:10:39;0.93;;;0.70;;
21036;SDS011;10677;50.942;4.028;2023-07-29T15:13:05;1.75;;;0.77;;
21036;SDS011;10677;50.942;4.028;2023-07-29T15:15:31;1.52;;;0.82;;
21036;SDS011;10677;50.942;4.028;2023-07-29T15:17:57;1.63;;;0.52;;